createdAt,value
2018-06-23T00:00:30.869Z,0
2018-06-23T00:01:32.978Z,0
2018-06-23T00:02:35.501Z,0
2018-06-23T00:03:37.544Z,0
2018-06-23T00:04:39.914Z,0
2018-06-23T00:05:41.956Z,0
2018-06-23T00:06:44.047Z,0
2018-06-23T00:07:46.094Z,0
2018-06-23T00:08:48.418Z,0
2018-06-23T00:09:50.471Z,0
2018-06-23T00:10:52.525Z,0
2018-06-23T00:11:54.595Z,0
2018-06-23T00:12:56.685Z,0
2018-06-23T00:13:58.717Z,0
2018-06-23T00:15:01.070Z,0
2018-06-23T00:16:03.492Z,0
2018-06-23T00:17:05.619Z,0
2018-06-23T00:18:07.972Z,0
2018-06-23T00:19:10.004Z,0
2018-06-23T00:20:12.039Z,0
2018-06-23T00:21:14.371Z,0
2018-06-23T00:22:16.777Z,0
2018-06-23T00:23:18.875Z,0
2018-06-23T00:24:20.929Z,0
2018-06-23T00:25:23.266Z,0
2018-06-23T00:26:26.719Z,0
2018-06-23T00:27:29.048Z,0
2018-06-23T00:28:32.613Z,0
2018-06-23T00:29:35.368Z,0
2018-06-23T00:30:38.368Z,0
2018-06-23T00:31:40.647Z,0
2018-06-23T00:32:43.450Z,0
2018-06-23T00:33:46.128Z,0
2018-06-23T00:34:48.882Z,0
2018-06-23T00:35:51.252Z,0
2018-06-23T00:36:54.664Z,0
2018-06-23T00:37:57.126Z,0
2018-06-23T00:38:59.221Z,0
2018-06-23T00:40:01.710Z,0
2018-06-23T00:41:04.334Z,0
2018-06-23T00:42:08.070Z,0
2018-06-23T00:43:12.623Z,0
2018-06-23T00:44:15.332Z,0
2018-06-23T00:45:17.892Z,0
2018-06-23T00:46:21.625Z,0
2018-06-23T00:47:24.007Z,0
2018-06-23T00:48:26.073Z,0
2018-06-23T00:49:28.220Z,0
2018-06-23T00:50:32.241Z,0
2018-06-23T00:51:35.190Z,0
2018-06-23T00:52:38.023Z,0
2018-06-23T00:53:40.467Z,0
2018-06-23T00:54:42.506Z,0
2018-06-23T00:55:44.531Z,0
2018-06-23T00:56:46.575Z,0
2018-06-23T00:57:48.633Z,0
2018-06-23T00:58:50.667Z,0
2018-06-23T00:59:52.698Z,0
2018-06-23T01:00:54.875Z,0
2018-06-23T01:01:56.937Z,0
2018-06-23T01:02:59.270Z,0
2018-06-23T01:04:01.376Z,0
2018-06-23T01:05:03.431Z,0
2018-06-23T01:06:05.474Z,0
2018-06-23T01:07:07.535Z,0
2018-06-23T01:08:09.676Z,0
2018-06-23T01:09:11.736Z,0
2018-06-23T01:10:13.775Z,0
2018-06-23T01:11:16.576Z,0
2018-06-23T01:12:20.475Z,0
2018-06-23T01:13:24.379Z,0
2018-06-23T01:14:27.575Z,0
2018-06-23T01:15:30.797Z,0
2018-06-23T01:16:33.110Z,0
2018-06-23T01:17:37.619Z,0
2018-06-23T01:18:40.863Z,0
2018-06-23T01:19:43.763Z,0
2018-06-23T01:20:46.241Z,0
2018-06-23T01:21:49.943Z,0
2018-06-23T01:22:52.401Z,0
2018-06-23T01:23:55.531Z,0
2018-06-23T01:24:57.895Z,0
2018-06-23T01:26:00.578Z,0
2018-06-23T01:27:02.727Z,0
2018-06-23T01:28:05.208Z,0
2018-06-23T01:29:08.324Z,0
2018-06-23T01:30:11.866Z,0
2018-06-23T01:31:14.219Z,0
2018-06-23T01:32:16.934Z,0
2018-06-23T01:33:19.590Z,0
2018-06-23T01:34:23.944Z,0
2018-06-23T01:35:27.428Z,0
2018-06-23T01:36:29.810Z,0
2018-06-23T01:37:32.958Z,0
2018-06-23T01:38:36.195Z,0
2018-06-23T01:39:39.390Z,0
2018-06-23T01:40:41.556Z,0
2018-06-23T01:41:44.700Z,0
2018-06-23T01:42:47.944Z,0
2018-06-23T01:43:50.094Z,0
2018-06-23T01:44:52.462Z,0
2018-06-23T01:45:55.565Z,0
2018-06-23T01:46:58.200Z,0
2018-06-23T01:48:01.035Z,0
2018-06-23T01:49:04.168Z,0
2018-06-23T01:50:06.881Z,0
2018-06-23T01:51:09.546Z,4
2018-06-23T01:52:12.554Z,4
2018-06-23T01:53:15.160Z,4
2018-06-23T01:54:17.552Z,4
2018-06-23T01:55:20.442Z,4
2018-06-23T01:56:23.560Z,0
2018-06-23T01:57:26.246Z,0
2018-06-23T01:58:29.430Z,4
2018-06-23T01:59:32.436Z,4
2018-06-23T02:00:34.929Z,4
2018-06-23T02:01:37.255Z,4
2018-06-23T02:02:40.062Z,8
2018-06-23T02:03:42.525Z,4
2018-06-23T02:04:45.646Z,4
2018-06-23T02:05:49.848Z,8
2018-06-23T02:06:52.001Z,8
2018-06-23T02:07:54.292Z,8
2018-06-23T02:08:56.712Z,12
2018-06-23T02:09:59.289Z,8
2018-06-23T02:11:02.009Z,8
2018-06-23T02:12:05.275Z,16
2018-06-23T02:13:07.386Z,16
2018-06-23T02:14:10.365Z,16
2018-06-23T02:15:12.566Z,20
2018-06-23T02:16:16.312Z,20
2018-06-23T02:17:19.445Z,24
2018-06-23T02:18:22.603Z,28
2018-06-23T02:19:24.858Z,28
2018-06-23T02:20:27.914Z,32
2018-06-23T02:21:30.834Z,36
2018-06-23T02:22:33.034Z,36
2018-06-23T02:23:36.137Z,40
2018-06-23T02:24:39.522Z,48
2018-06-23T02:25:42.027Z,52
2018-06-23T02:26:44.905Z,56
2018-06-23T02:27:47.886Z,68
2018-06-23T02:28:51.265Z,72
2018-06-23T02:29:55.018Z,72
2018-06-23T02:30:58.502Z,84
2018-06-23T02:32:01.465Z,88
2018-06-23T02:33:04.447Z,96
2018-06-23T02:34:07.453Z,100
2018-06-23T02:35:10.906Z,104
2018-06-23T02:36:14.173Z,112
2018-06-23T02:37:16.723Z,128
2018-06-23T02:38:19.146Z,136
2018-06-23T02:39:22.063Z,136
2018-06-23T02:40:24.617Z,148
2018-06-23T02:41:27.615Z,176
2018-06-23T02:42:30.670Z,180
2018-06-23T02:43:33.531Z,188
2018-06-23T02:44:37.188Z,188
2018-06-23T02:45:39.899Z,196
2018-06-23T02:46:42.719Z,228
2018-06-23T02:47:45.105Z,244
2018-06-23T02:48:48.897Z,256
2018-06-23T02:49:51.868Z,276
2018-06-23T02:50:55.164Z,292
2018-06-23T02:51:57.760Z,320
2018-06-23T02:53:00.919Z,332
2018-06-23T02:54:03.762Z,308
2018-06-23T02:55:07.415Z,324
2018-06-23T02:56:09.986Z,380
2018-06-23T02:57:12.682Z,384
2018-06-23T02:58:16.657Z,452
2018-06-23T02:59:19.745Z,376
2018-06-23T03:00:22.250Z,376
2018-06-23T03:01:24.942Z,396
2018-06-23T03:02:27.548Z,456
2018-06-23T03:03:30.528Z,536
2018-06-23T03:04:33.046Z,640
2018-06-23T03:05:35.250Z,652
2018-06-23T03:06:38.079Z,644
2018-06-23T03:07:40.194Z,724
2018-06-23T03:08:42.314Z,796
2018-06-23T03:09:45.784Z,852
2018-06-23T03:10:48.930Z,884
2018-06-23T03:11:51.693Z,884
2018-06-23T03:12:54.637Z,856
2018-06-23T03:13:58.413Z,920
2018-06-23T03:15:01.221Z,912
2018-06-23T03:16:03.818Z,896
2018-06-23T03:17:06.540Z,1076
2018-06-23T03:18:09.021Z,1108
2018-06-23T03:19:12.483Z,1116
2018-06-23T03:20:15.198Z,1168
2018-06-23T03:21:17.988Z,1224
2018-06-23T03:22:20.653Z,1308
2018-06-23T03:23:23.787Z,1328
2018-06-23T03:24:26.688Z,1236
2018-06-23T03:25:29.596Z,1300
2018-06-23T03:26:31.946Z,1304
2018-06-23T03:27:33.989Z,1368
2018-06-23T03:28:36.034Z,1400
2018-06-23T03:29:38.093Z,1456
2018-06-23T03:30:40.422Z,1344
2018-06-23T03:31:43.176Z,1340
2018-06-23T03:32:45.228Z,1304
2018-06-23T03:33:47.275Z,1392
2018-06-23T03:34:49.302Z,1284
2018-06-23T03:35:51.709Z,1304
2018-06-23T03:36:53.734Z,1220
2018-06-23T03:37:56.205Z,1284
2018-06-23T03:38:58.968Z,1316
2018-06-23T03:40:01.229Z,1256
2018-06-23T03:41:03.605Z,1156
2018-06-23T03:42:05.657Z,1060
2018-06-23T03:43:08.348Z,1184
2018-06-23T03:44:10.733Z,1244
2018-06-23T03:45:13.250Z,1596
2018-06-23T03:46:15.606Z,1864
2018-06-23T03:47:17.638Z,1948
2018-06-23T03:48:19.679Z,1836
2018-06-23T03:49:21.723Z,1600
2018-06-23T03:50:23.783Z,1648
2018-06-23T03:51:25.822Z,1636
2018-06-23T03:52:28.553Z,1424
2018-06-23T03:53:30.916Z,1256
2018-06-23T03:54:32.943Z,1360
2018-06-23T03:55:34.982Z,1484
2018-06-23T03:56:37.015Z,1356
2018-06-23T03:57:39.158Z,1052
2018-06-23T03:58:41.217Z,1112
2018-06-23T03:59:43.633Z,1504
2018-06-23T04:00:45.954Z,1584
2018-06-23T04:01:48.000Z,1576
2018-06-23T04:02:50.458Z,1464
2018-06-23T04:03:52.809Z,1260
2018-06-23T04:04:54.858Z,1204
2018-06-23T04:05:57.219Z,1572
2018-06-23T04:06:59.248Z,1964
2018-06-23T04:08:01.275Z,2064
2018-06-23T04:09:03.345Z,2052
2018-06-23T04:10:05.414Z,1852
2018-06-23T04:11:07.502Z,1764
2018-06-23T04:12:10.202Z,2380
2018-06-23T04:13:12.240Z,2620
2018-06-23T04:14:14.295Z,2416
2018-06-23T04:15:16.365Z,2616
2018-06-23T04:16:18.841Z,2504
2018-06-23T04:17:21.223Z,1692
2018-06-23T04:18:23.274Z,1928
2018-06-23T04:19:25.351Z,2160
2018-06-23T04:20:27.799Z,2600
2018-06-23T04:21:30.260Z,2688
2018-06-23T04:22:32.338Z,2748
2018-06-23T04:23:34.374Z,2368
2018-06-23T04:24:36.819Z,3316
2018-06-23T04:25:38.853Z,3372
2018-06-23T04:26:40.896Z,2888
2018-06-23T04:27:43.344Z,2904
2018-06-23T04:28:45.400Z,2752
2018-06-23T04:29:47.444Z,2828
2018-06-23T04:30:49.489Z,2640
2018-06-23T04:31:51.531Z,2288
2018-06-23T04:32:53.578Z,2320
2018-06-23T04:33:55.626Z,2292
2018-06-23T04:34:57.666Z,1808
2018-06-23T04:35:59.716Z,1704
2018-06-23T04:37:01.792Z,2224
2018-06-23T04:38:04.127Z,3096
2018-06-23T04:39:06.495Z,3544
2018-06-23T04:40:08.924Z,3920
2018-06-23T04:41:10.963Z,4124
2018-06-23T04:42:13.014Z,3436
2018-06-23T04:43:15.367Z,2904
2018-06-23T04:44:17.432Z,2956
2018-06-23T04:45:19.515Z,2504
2018-06-23T04:46:21.938Z,3116
2018-06-23T04:47:23.968Z,4276
2018-06-23T04:48:26.014Z,5244
2018-06-23T04:49:28.476Z,5832
2018-06-23T04:50:30.564Z,5872
2018-06-23T04:51:32.648Z,5892
2018-06-23T04:52:34.761Z,6612
2018-06-23T04:53:37.235Z,7628
2018-06-23T04:54:39.342Z,9020
2018-06-23T04:55:41.375Z,9316
2018-06-23T04:56:43.787Z,9696
2018-06-23T04:57:46.122Z,9336
2018-06-23T04:58:48.191Z,8452
2018-06-23T04:59:50.447Z,8124
2018-06-23T05:00:53.844Z,9108
2018-06-23T05:01:57.147Z,9920
2018-06-23T05:03:00.400Z,10420
2018-06-23T05:04:03.830Z,11332
2018-06-23T05:05:06.750Z,11272
2018-06-23T05:06:10.245Z,10992
2018-06-23T05:07:13.705Z,11604
2018-06-23T05:08:17.487Z,12132
2018-06-23T05:09:21.361Z,13100
2018-06-23T05:10:24.564Z,13316
2018-06-23T05:11:26.594Z,12824
2018-06-23T05:12:28.767Z,13468
2018-06-23T05:13:30.681Z,13648
2018-06-23T05:14:32.716Z,12300
2018-06-23T05:15:35.046Z,11044
2018-06-23T05:16:37.077Z,9824
2018-06-23T05:17:39.120Z,9412
2018-06-23T05:18:41.149Z,9392
2018-06-23T05:19:43.186Z,10172
2018-06-23T05:20:45.233Z,9600
2018-06-23T05:21:47.585Z,8372
2018-06-23T05:22:49.610Z,8912
2018-06-23T05:23:51.641Z,9060
2018-06-23T05:24:53.678Z,9272
2018-06-23T05:25:55.780Z,9892
2018-06-23T05:26:57.744Z,10128
2018-06-23T05:27:59.781Z,8860
2018-06-23T05:29:02.105Z,7996
2018-06-23T05:30:04.140Z,8044
2018-06-23T05:31:06.174Z,7980
2018-06-23T05:32:08.229Z,8524
2018-06-23T05:33:10.255Z,8064
2018-06-23T05:34:12.296Z,7900
2018-06-23T05:35:14.328Z,8180
2018-06-23T05:36:16.368Z,7624
2018-06-23T05:37:18.405Z,7928
2018-06-23T05:38:20.438Z,7760
2018-06-23T05:39:22.870Z,7584
2018-06-23T05:40:24.908Z,8404
2018-06-23T05:41:26.939Z,8524
2018-06-23T05:42:28.980Z,8624
2018-06-23T05:43:31.018Z,8404
2018-06-23T05:44:33.444Z,9316
2018-06-23T05:45:35.472Z,10140
2018-06-23T05:46:37.507Z,10280
2018-06-23T05:47:39.557Z,9768
2018-06-23T05:48:41.572Z,8088
2018-06-23T05:49:43.621Z,6980
2018-06-23T05:50:45.647Z,6624
2018-06-23T05:51:47.685Z,6372
2018-06-23T05:52:49.715Z,7480
2018-06-23T05:53:51.757Z,10028
2018-06-23T05:54:54.076Z,12572
2018-06-23T05:55:56.123Z,13944
2018-06-23T05:56:58.148Z,14484
2018-06-23T05:58:00.198Z,14512
2018-06-23T05:59:02.225Z,12100
2018-06-23T06:00:04.267Z,11868
2018-06-23T06:01:06.300Z,11788
2018-06-23T06:02:08.340Z,11272
2018-06-23T06:03:10.385Z,9596
2018-06-23T06:04:12.427Z,9660
2018-06-23T06:05:14.461Z,10872
2018-06-23T06:06:16.502Z,12292
2018-06-23T06:07:18.825Z,13348
2018-06-23T06:08:20.869Z,13352
2018-06-23T06:09:22.901Z,13220
2018-06-23T06:10:25.625Z,14072
2018-06-23T06:11:27.665Z,15040
2018-06-23T06:12:29.974Z,15292
2018-06-23T06:13:32.018Z,13540
2018-06-23T06:14:34.058Z,11244
2018-06-23T06:15:36.100Z,10976
2018-06-23T06:16:38.129Z,10544
2018-06-23T06:17:40.172Z,10072
2018-06-23T06:18:42.488Z,10116
2018-06-23T06:19:44.916Z,9412
2018-06-23T06:20:46.945Z,9136
2018-06-23T06:21:49.373Z,9156
2018-06-23T06:22:51.403Z,9240
2018-06-23T06:23:53.810Z,9916
2018-06-23T06:24:55.764Z,10204
2018-06-23T06:25:57.807Z,10516
2018-06-23T06:26:59.847Z,11320
2018-06-23T06:28:01.881Z,10980
2018-06-23T06:29:03.908Z,10360
2018-06-23T06:30:05.940Z,9456
2018-06-23T06:31:07.995Z,9060
2018-06-23T06:32:10.321Z,8528
2018-06-23T06:33:12.365Z,9308
2018-06-23T06:34:14.691Z,10252
2018-06-23T06:35:16.726Z,11452
2018-06-23T06:36:18.761Z,11380
2018-06-23T06:37:21.182Z,11032
2018-06-23T06:38:23.620Z,11216
2018-06-23T06:39:25.665Z,11036
2018-06-23T06:40:27.691Z,9832
2018-06-23T06:41:29.734Z,9100
2018-06-23T06:42:31.771Z,8732
2018-06-23T06:43:34.095Z,7692
2018-06-23T06:44:36.177Z,6824
2018-06-23T06:45:38.621Z,7336
2018-06-23T06:46:41.328Z,8560
2018-06-23T06:47:43.359Z,9468
2018-06-23T06:48:45.395Z,9964
2018-06-23T06:49:47.440Z,9808
2018-06-23T06:50:49.784Z,9508
2018-06-23T06:51:52.280Z,9460
2018-06-23T06:52:54.595Z,9208
2018-06-23T06:53:56.931Z,8620
2018-06-23T06:54:58.971Z,8104
2018-06-23T06:56:01.682Z,7908
2018-06-23T06:57:04.001Z,8000
2018-06-23T06:58:06.037Z,8904
2018-06-23T06:59:08.075Z,10356
2018-06-23T07:00:10.106Z,10440
2018-06-23T07:01:12.139Z,9868
2018-06-23T07:02:14.193Z,9852
2018-06-23T07:03:16.234Z,9336
2018-06-23T07:04:18.257Z,8072
2018-06-23T07:05:20.295Z,8616
2018-06-23T07:06:22.344Z,9588
2018-06-23T07:07:24.655Z,10088
2018-06-23T07:08:27.363Z,11800
2018-06-23T07:09:29.401Z,12852
2018-06-23T07:10:31.736Z,11896
2018-06-23T07:11:33.795Z,10424
2018-06-23T07:12:35.824Z,10212
2018-06-23T07:13:37.880Z,10328
2018-06-23T07:14:39.933Z,10820
2018-06-23T07:15:41.971Z,12456
2018-06-23T07:16:44.022Z,13240
2018-06-23T07:17:46.053Z,11840
2018-06-23T07:18:48.096Z,10548
2018-06-23T07:19:50.126Z,10344
2018-06-23T07:20:52.165Z,10732
2018-06-23T07:21:54.215Z,11336
2018-06-23T07:22:56.651Z,11628
2018-06-23T07:23:58.894Z,11392
2018-06-23T07:25:00.735Z,10888
2018-06-23T07:26:02.783Z,10280
2018-06-23T07:27:04.829Z,10048
2018-06-23T07:28:06.884Z,10340
2018-06-23T07:29:08.926Z,10096
2018-06-23T07:30:11.368Z,9556
2018-06-23T07:31:13.399Z,8324
2018-06-23T07:32:16.026Z,7628
2018-06-23T07:33:18.059Z,7484
2018-06-23T07:34:20.197Z,8060
2018-06-23T07:35:22.579Z,9684
2018-06-23T07:36:24.620Z,11456
2018-06-23T07:37:26.661Z,13224
2018-06-23T07:38:29.083Z,12828
2018-06-23T07:39:31.417Z,12164
2018-06-23T07:40:33.881Z,11028
2018-06-23T07:41:35.890Z,10824
2018-06-23T07:42:37.928Z,10396
2018-06-23T07:43:39.974Z,11168
2018-06-23T07:44:41.997Z,12772
2018-06-23T07:45:44.046Z,13876
2018-06-23T07:46:46.084Z,14776
2018-06-23T07:47:48.125Z,13920
2018-06-23T07:48:50.158Z,12604
2018-06-23T07:49:52.195Z,12196
2018-06-23T07:50:54.242Z,11848
2018-06-23T07:51:56.290Z,11832
2018-06-23T07:52:58.354Z,12584
2018-06-23T07:54:00.426Z,13860
2018-06-23T07:55:02.468Z,13248
2018-06-23T07:56:04.515Z,12812
2018-06-23T07:57:06.872Z,13352
2018-06-23T07:58:08.933Z,13912
2018-06-23T07:59:11.023Z,12924
2018-06-23T08:00:13.073Z,11876
2018-06-23T08:01:15.123Z,13980
2018-06-23T08:02:17.173Z,14708
2018-06-23T08:03:19.525Z,14236
2018-06-23T08:04:21.898Z,14844
2018-06-23T08:05:23.942Z,14936
2018-06-23T08:06:25.979Z,15596
2018-06-23T08:07:28.414Z,17580
2018-06-23T08:08:30.740Z,19360
2018-06-23T08:09:32.805Z,19552
2018-06-23T08:10:34.848Z,18172
2018-06-23T08:11:36.951Z,15548
2018-06-23T08:12:38.980Z,13392
2018-06-23T08:13:41.024Z,11960
2018-06-23T08:14:43.082Z,11080
2018-06-23T08:15:45.160Z,10664
2018-06-23T08:16:47.207Z,9588
2018-06-23T08:17:49.281Z,9812
2018-06-23T08:18:51.331Z,9232
2018-06-23T08:19:53.405Z,8036
2018-06-23T08:20:55.476Z,7912
2018-06-23T08:21:57.838Z,8100
2018-06-23T08:22:59.900Z,8696
2018-06-23T08:24:01.942Z,8496
2018-06-23T08:25:04.063Z,7888
2018-06-23T08:26:06.518Z,8380
2018-06-23T08:27:08.598Z,9624
2018-06-23T08:28:10.672Z,9088
2018-06-23T08:29:12.717Z,7592
2018-06-23T08:30:15.094Z,6924
2018-06-23T08:31:17.146Z,6544
2018-06-23T08:32:19.182Z,6524
2018-06-23T08:33:21.251Z,6872
2018-06-23T08:34:23.279Z,7060
2018-06-23T08:35:25.755Z,7300
2018-06-23T08:36:27.794Z,8376
2018-06-23T08:37:29.869Z,8940
2018-06-23T08:38:32.229Z,9688
2018-06-23T08:39:34.272Z,10736
2018-06-23T08:40:36.373Z,11176
2018-06-23T08:41:39.080Z,13164
2018-06-23T08:42:41.120Z,15308
2018-06-23T08:43:43.201Z,20512
2018-06-23T08:44:45.650Z,28000
2018-06-23T08:45:47.735Z,33056
2018-06-23T08:46:49.841Z,31232
2018-06-23T08:47:51.878Z,30880
2018-06-23T08:48:54.308Z,30624
2018-06-23T08:49:56.346Z,28896
2018-06-23T08:50:58.393Z,26624
2018-06-23T08:52:00.481Z,26464
2018-06-23T08:53:02.550Z,28256
2018-06-23T08:54:04.601Z,29760
2018-06-23T08:55:06.685Z,34688
2018-06-23T08:56:09.063Z,33536
2018-06-23T08:57:11.151Z,32288
2018-06-23T08:58:13.190Z,33056
2018-06-23T08:59:15.275Z,39072
2018-06-23T09:00:17.315Z,28192
2018-06-23T09:01:19.359Z,27264
2018-06-23T09:02:21.446Z,27776
2018-06-23T09:03:23.913Z,29184
2018-06-23T09:04:25.957Z,28416
2018-06-23T09:05:28.010Z,27360
2018-06-23T09:06:30.093Z,24448
2018-06-23T09:07:32.761Z,28832
2018-06-23T09:08:35.089Z,21952
2018-06-23T09:09:37.139Z,21952
2018-06-23T09:10:39.186Z,22688
2018-06-23T09:11:41.233Z,23520
2018-06-23T09:12:43.563Z,25216
2018-06-23T09:13:45.613Z,27136
2018-06-23T09:14:47.644Z,26080
2018-06-23T09:15:49.805Z,27424
2018-06-23T09:16:51.910Z,29920
2018-06-23T09:17:53.912Z,29312
2018-06-23T09:18:56.253Z,40000
2018-06-23T09:19:58.434Z,38432
2018-06-23T09:21:00.797Z,32864
2018-06-23T09:22:02.822Z,47712
2018-06-23T09:23:05.037Z,31392
2018-06-23T09:24:07.483Z,120640
2018-06-23T09:25:09.550Z,36608
2018-06-23T09:26:11.883Z,34944
2018-06-23T09:27:13.928Z,32256
2018-06-23T09:28:15.986Z,32096
2018-06-23T09:29:18.442Z,35968
2018-06-23T09:30:20.480Z,30624
2018-06-23T09:31:22.530Z,27360
2018-06-23T09:32:24.572Z,28736
2018-06-23T09:33:26.693Z,21472
2018-06-23T09:34:28.818Z,25600
2018-06-23T09:35:31.546Z,31456
2018-06-23T09:36:34.554Z,37728
2018-06-23T09:37:36.592Z,29280
2018-06-23T09:38:38.702Z,30016
2018-06-23T09:39:40.748Z,32640
2018-06-23T09:40:42.792Z,32768
2018-06-23T09:41:44.883Z,31904
2018-06-23T09:42:47.274Z,30912
2018-06-23T09:43:49.318Z,29248
2018-06-23T09:44:51.363Z,23968
2018-06-23T09:45:53.769Z,19744
2018-06-23T09:46:57.036Z,16528
2018-06-23T09:47:59.124Z,15492
2018-06-23T09:49:01.168Z,15524
2018-06-23T09:50:03.216Z,16900
2018-06-23T09:51:05.541Z,19136
2018-06-23T09:52:07.594Z,19712
2018-06-23T09:53:10.071Z,20704
2018-06-23T09:54:12.111Z,20928
2018-06-23T09:55:14.172Z,20736
2018-06-23T09:56:16.213Z,20896
2018-06-23T09:57:18.634Z,21408
2018-06-23T09:58:20.687Z,21952
2018-06-23T09:59:22.719Z,21248
2018-06-23T10:00:24.772Z,19488
2018-06-23T10:01:26.919Z,20800
2018-06-23T10:02:28.957Z,22528
2018-06-23T10:03:31.054Z,24800
2018-06-23T10:04:33.125Z,27200
2018-06-23T10:05:35.551Z,26816
2018-06-23T10:06:37.624Z,18272
2018-06-23T10:07:39.673Z,15888
2018-06-23T10:08:41.741Z,16896
2018-06-23T10:09:43.848Z,19424
2018-06-23T10:10:45.986Z,19520
2018-06-23T10:11:48.038Z,17476
2018-06-23T10:12:50.091Z,14940
2018-06-23T10:13:52.411Z,11564
2018-06-23T10:14:54.533Z,9088
2018-06-23T10:15:56.593Z,7340
2018-06-23T10:16:58.631Z,6364
2018-06-23T10:18:00.994Z,6588
2018-06-23T10:19:03.347Z,8636
2018-06-23T10:20:05.390Z,11912
2018-06-23T10:21:07.427Z,14344
2018-06-23T10:22:09.464Z,16452
2018-06-23T10:23:12.414Z,18848
2018-06-23T10:24:14.521Z,20992
2018-06-23T10:25:16.552Z,22752
2018-06-23T10:26:18.608Z,22720
2018-06-23T10:27:20.702Z,20896
2018-06-23T10:28:23.069Z,19072
2018-06-23T10:29:25.104Z,17632
2018-06-23T10:30:27.433Z,16200
2018-06-23T10:31:29.479Z,14856
2018-06-23T10:32:31.910Z,13532
2018-06-23T10:33:34.071Z,12212
2018-06-23T10:34:36.117Z,10524
2018-06-23T10:35:38.171Z,10796
2018-06-23T10:36:40.527Z,11508
2018-06-23T10:37:43.007Z,11968
2018-06-23T10:38:45.156Z,12684
2018-06-23T10:39:47.090Z,14196
2018-06-23T10:40:49.130Z,15740
2018-06-23T10:41:51.178Z,17300
2018-06-23T10:42:53.226Z,18688
2018-06-23T10:43:55.278Z,21280
2018-06-23T10:44:57.601Z,24256
2018-06-23T10:45:59.634Z,30080
2018-06-23T10:47:01.683Z,30944
2018-06-23T10:48:03.724Z,24480
2018-06-23T10:49:05.762Z,21760
2018-06-23T10:50:07.807Z,20416
2018-06-23T10:51:09.847Z,19936
2018-06-23T10:52:12.187Z,20352
2018-06-23T10:53:14.522Z,19584
2018-06-23T10:54:16.563Z,16476
2018-06-23T10:55:18.616Z,13652
2018-06-23T10:56:20.664Z,9308
2018-06-23T10:57:22.989Z,5520
2018-06-23T10:58:25.035Z,4228
2018-06-23T10:59:27.071Z,4328
2018-06-23T11:00:29.128Z,4708
2018-06-23T11:01:31.830Z,5132
2018-06-23T11:02:33.882Z,5540
2018-06-23T11:03:35.947Z,6092
2018-06-23T11:04:38.045Z,6792
2018-06-23T11:05:40.036Z,8196
2018-06-23T11:06:42.076Z,10024
2018-06-23T11:07:44.119Z,12476
2018-06-23T11:08:46.176Z,16136
2018-06-23T11:09:48.225Z,21312
2018-06-23T11:10:50.567Z,25568
2018-06-23T11:11:52.636Z,25024
2018-06-23T11:12:54.666Z,25440
2018-06-23T11:13:56.714Z,21920
2018-06-23T11:14:58.756Z,19936
2018-06-23T11:16:00.794Z,19232
2018-06-23T11:17:03.142Z,19104
2018-06-23T11:18:05.185Z,19488
2018-06-23T11:19:07.236Z,20096
2018-06-23T11:20:09.961Z,20640
2018-06-23T11:21:11.999Z,21248
2018-06-23T11:22:14.053Z,21664
2018-06-23T11:23:16.090Z,22336
2018-06-23T11:24:18.186Z,23232
2018-06-23T11:25:20.180Z,24256
2018-06-23T11:26:22.220Z,25440
2018-06-23T11:27:24.269Z,25952
2018-06-23T11:28:26.311Z,27200
2018-06-23T11:29:28.749Z,28544
2018-06-23T11:30:30.789Z,30464
2018-06-23T11:31:32.839Z,31808
2018-06-23T11:32:34.884Z,31840
2018-06-23T11:33:36.925Z,34976
2018-06-23T11:34:38.961Z,36864
2018-06-23T11:35:41.304Z,40928
2018-06-23T11:36:43.339Z,44960
2018-06-23T11:37:45.386Z,38208
2018-06-23T11:38:47.738Z,34976
2018-06-23T11:39:49.784Z,32032
2018-06-23T11:40:51.827Z,29664
2018-06-23T11:41:53.863Z,28384
2018-06-23T11:42:55.911Z,26880
2018-06-23T11:43:57.974Z,25216
2018-06-23T11:45:00.023Z,23552
2018-06-23T11:46:02.363Z,22144
2018-06-23T11:47:04.447Z,20544
2018-06-23T11:48:06.492Z,18880
2018-06-23T11:49:08.544Z,17588
2018-06-23T11:50:10.602Z,17636
2018-06-23T11:51:12.938Z,19712
2018-06-23T11:52:15.045Z,22144
2018-06-23T11:53:17.502Z,23424
2018-06-23T11:54:19.558Z,24608
2018-06-23T11:55:21.991Z,28672
2018-06-23T11:56:24.036Z,34496
2018-06-23T11:57:26.079Z,39168
2018-06-23T11:58:28.130Z,41440
2018-06-23T11:59:30.178Z,34688
2018-06-23T12:00:32.217Z,24704
2018-06-23T12:01:34.256Z,22752
2018-06-23T12:02:36.311Z,24704
2018-06-23T12:03:38.353Z,23936
2018-06-23T12:04:40.785Z,22016
2018-06-23T12:05:42.823Z,21184
2018-06-23T12:06:44.870Z,20928
2018-06-23T12:07:46.913Z,21472
2018-06-23T12:08:48.964Z,21344
2018-06-23T12:09:51.001Z,21056
2018-06-23T12:10:53.043Z,24064
2018-06-23T12:11:55.090Z,28256
2018-06-23T12:12:57.124Z,31424
2018-06-23T12:13:59.175Z,36064
2018-06-23T12:15:01.493Z,38144
2018-06-23T12:16:03.542Z,38112
2018-06-23T12:17:05.873Z,35968
2018-06-23T12:18:07.908Z,32704
2018-06-23T12:19:09.952Z,31808
2018-06-23T12:20:12.058Z,30400
2018-06-23T12:21:14.522Z,29792
2018-06-23T12:22:16.850Z,31712
2018-06-23T12:23:18.886Z,33472
2018-06-23T12:24:21.238Z,31168
2018-06-23T12:25:23.277Z,30016
2018-06-23T12:26:25.324Z,29088
2018-06-23T12:27:27.371Z,30272
2018-06-23T12:28:29.418Z,35296
2018-06-23T12:29:31.467Z,35904
2018-06-23T12:30:33.883Z,32128
2018-06-23T12:31:35.845Z,25600
2018-06-23T12:32:37.889Z,21280
2018-06-23T12:33:40.199Z,17680
2018-06-23T12:34:42.545Z,14628
2018-06-23T12:35:44.588Z,12360
2018-06-23T12:36:46.633Z,10988
2018-06-23T12:37:48.978Z,9816
2018-06-23T12:38:51.020Z,8732
2018-06-23T12:39:53.104Z,8712
2018-06-23T12:40:55.429Z,10132
2018-06-23T12:41:57.760Z,11856
2018-06-23T12:42:59.813Z,13392
2018-06-23T12:44:01.857Z,14780
2018-06-23T12:45:03.896Z,15936
2018-06-23T12:46:05.940Z,17356
2018-06-23T12:47:07.975Z,19520
2018-06-23T12:48:10.020Z,21792
2018-06-23T12:49:12.451Z,24608
2018-06-23T12:50:14.497Z,27552
2018-06-23T12:51:17.380Z,28896
2018-06-23T12:52:19.434Z,27232
2018-06-23T12:53:21.471Z,24960
2018-06-23T12:54:23.511Z,24096
2018-06-23T12:55:26.142Z,23936
2018-06-23T12:56:28.194Z,23616
2018-06-23T12:57:30.521Z,21696
2018-06-23T12:58:32.845Z,19616
2018-06-23T12:59:35.190Z,19040
2018-06-23T13:00:37.222Z,18432
2018-06-23T13:01:39.266Z,15264
2018-06-23T13:02:41.597Z,12748
2018-06-23T13:03:43.638Z,11008
2018-06-23T13:04:46.043Z,10652
2018-06-23T13:05:48.036Z,11864
2018-06-23T13:06:50.082Z,15572
2018-06-23T13:07:52.809Z,21376
2018-06-23T13:08:54.835Z,26368
2018-06-23T13:09:57.160Z,36192
2018-06-23T13:10:59.596Z,43648
2018-06-23T13:12:01.637Z,54208
2018-06-23T13:13:04.261Z,52896
2018-06-23T13:14:06.311Z,64480
2018-06-23T13:15:08.411Z,125472
2018-06-23T13:16:10.400Z,111392
2018-06-23T13:17:12.433Z,49664
2018-06-23T13:18:14.791Z,35520
2018-06-23T13:19:16.837Z,36160
2018-06-23T13:20:18.881Z,37600
2018-06-23T13:21:20.922Z,41056
2018-06-23T13:22:23.281Z,45088
2018-06-23T13:23:25.300Z,44384
2018-06-23T13:24:27.349Z,43008
2018-06-23T13:25:29.394Z,41920
2018-06-23T13:26:31.435Z,42208
2018-06-23T13:27:33.477Z,40864
2018-06-23T13:28:36.213Z,31008
2018-06-23T13:29:38.649Z,24416
2018-06-23T13:30:40.690Z,23392
2018-06-23T13:31:43.309Z,21248
2018-06-23T13:32:45.657Z,20032
2018-06-23T13:33:47.696Z,20256
2018-06-23T13:34:50.022Z,21152
2018-06-23T13:35:52.071Z,22048
2018-06-23T13:36:54.109Z,24864
2018-06-23T13:37:56.161Z,25472
2018-06-23T13:38:58.197Z,24096
2018-06-23T13:40:00.629Z,23040
2018-06-23T13:41:02.675Z,22752
2018-06-23T13:42:05.013Z,23616
2018-06-23T13:43:07.063Z,23584
2018-06-23T13:44:09.108Z,22624
2018-06-23T13:45:11.153Z,22144
2018-06-23T13:46:13.195Z,19968
2018-06-23T13:47:15.232Z,15124
2018-06-23T13:48:17.276Z,12116
2018-06-23T13:49:19.314Z,12800
2018-06-23T13:50:21.347Z,14348
2018-06-23T13:51:23.396Z,14140